sensor_id;sensor_type;location;lat;lon;timestamp;P1;durP1;ratioP1;P2;durP2;ratioP2
20026;SDS011;10174;42.688;23.344;2023-07-13T00:00:45;10.55;;;6.47;;
20026;SDS011;10174;42.688;23.344;2023-07-13T00:03:11;13.18;;;6.05;;
20026;SDS011;10174;42.688;23.344;2023-07-13T00:05:38;12.88;;;6.45;;
20026;SDS011;10174;42.688;23.344;2023-07-13T00:08:04;16.38;;;6.28;;
20026;SDS011;10174;42.688;23.344;2023-07-13T00:10:29;13.10;;;5.90;;
20026;SDS011;10174;42.688;23.344;2023-07-13T00:12:55;14.07;;;6.15;;
20026;SDS011;10174;42.688;23.344;2023-07-13T00:15:22;9.50;;;5.75;;
20026;SDS011;10174;42.688;23.344;2023-07-13T00:17:50;11.38;;;5.90;;
20026;SDS011;10174;42.688;23.344;2023-07-13T00:20:16;13.73;;;5.75;;
20026;SDS011;10174;42.688;23.344;2023-07-13T00:22:42;14.77;;;6.22;;
20026;SDS011;10174;42.688;23.344;2023-07-13T00:25:09;12.30;;;6.43;;
20026;SDS011;10174;42.688;23.344;2023-07-13T00:27:36;12.00;;;6.70;;
20026;SDS011;10174;42.688;23.344;2023-07-13T00:30:01;14.85;;;6.55;;
20026;SDS011;10174;42.688;23.344;2023-07-13T00:32:27;12.05;;;6.10;;
20026;SDS011;10174;42.688;23.344;2023-07-13T00:34:54;13.65;;;6.20;;
20026;SDS011;10174;42.688;23.344;2023-07-13T00:37:19;16.08;;;6.85;;
20026;SDS011;10174;42.688;23.344;2023-07-13T00:39:44;10.95;;;6.45;;
20026;SDS011;10174;42.688;23.344;2023-07-13T00:42:10;9.10;;;6.00;;
20026;SDS011;10174;42.688;23.344;2023-07-13T00:44:36;15.65;;;6.72;;
20026;SDS011;10174;42.688;23.344;2023-07-13T00:47:01;13.85;;;6.95;;
20026;SDS011;10174;42.688;23.344;2023-07-13T00:49:27;17.75;;;6.75;;
20026;SDS011;10174;42.688;23.344;2023-07-13T00:54:27;15.90;;;7.03;;
20026;SDS011;10174;42.688;23.344;2023-07-13T00:57:07;13.52;;;7.03;;
20026;SDS011;10174;42.688;23.344;2023-07-13T00:59:36;20.65;;;7.60;;
20026;SDS011;10174;42.688;23.344;2023-07-13T01:02:05;15.52;;;7.07;;
20026;SDS011;10174;42.688;23.344;2023-07-13T01:04:30;13.43;;;6.75;;
20026;SDS011;10174;42.688;23.344;2023-07-13T01:06:56;14.48;;;7.80;;
20026;SDS011;10174;42.688;23.344;2023-07-13T01:09:22;21.65;;;7.45;;
20026;SDS011;10174;42.688;23.344;2023-07-13T01:11:48;16.23;;;7.82;;
20026;SDS011;10174;42.688;23.344;2023-07-13T01:14:14;19.70;;;9.05;;
20026;SDS011;10174;42.688;23.344;2023-07-13T01:16:41;15.75;;;7.65;;
20026;SDS011;10174;42.688;23.344;2023-07-13T01:22:01;14.30;;;8.25;;
20026;SDS011;10174;42.688;23.344;2023-07-13T01:24:28;16.45;;;7.40;;
20026;SDS011;10174;42.688;23.344;2023-07-13T01:26:53;18.35;;;7.88;;
20026;SDS011;10174;42.688;23.344;2023-07-13T01:29:19;18.73;;;8.48;;
20026;SDS011;10174;42.688;23.344;2023-07-13T01:31:45;20.90;;;8.15;;
20026;SDS011;10174;42.688;23.344;2023-07-13T01:34:11;21.20;;;8.70;;
20026;SDS011;10174;42.688;23.344;2023-07-13T01:36:37;17.83;;;8.45;;
20026;SDS011;10174;42.688;23.344;2023-07-13T01:39:02;19.88;;;9.60;;
20026;SDS011;10174;42.688;23.344;2023-07-13T01:41:28;18.85;;;9.13;;
20026;SDS011;10174;42.688;23.344;2023-07-13T01:43:54;20.63;;;8.98;;
20026;SDS011;10174;42.688;23.344;2023-07-13T01:46:19;19.75;;;9.63;;
20026;SDS011;10174;42.688;23.344;2023-07-13T01:48:44;21.08;;;9.57;;
20026;SDS011;10174;42.688;23.344;2023-07-13T01:51:10;24.08;;;9.80;;
20026;SDS011;10174;42.688;23.344;2023-07-13T01:53:35;18.60;;;9.50;;
20026;SDS011;10174;42.688;23.344;2023-07-13T01:56:01;16.02;;;9.70;;
20026;SDS011;10174;42.688;23.344;2023-07-13T01:58:27;28.05;;;10.35;;
20026;SDS011;10174;42.688;23.344;2023-07-13T02:00:52;21.63;;;9.38;;
20026;SDS011;10174;42.688;23.344;2023-07-13T02:03:18;22.17;;;9.60;;
20026;SDS011;10174;42.688;23.344;2023-07-13T02:05:44;26.30;;;9.80;;
20026;SDS011;10174;42.688;23.344;2023-07-13T02:08:10;19.38;;;9.95;;
20026;SDS011;10174;42.688;23.344;2023-07-13T02:10:36;18.40;;;10.35;;
20026;SDS011;10174;42.688;23.344;2023-07-13T02:13:03;20.83;;;10.15;;
20026;SDS011;10174;42.688;23.344;2023-07-13T02:15:30;20.10;;;9.50;;
20026;SDS011;10174;42.688;23.344;2023-07-13T02:17:56;18.73;;;10.00;;
20026;SDS011;10174;42.688;23.344;2023-07-13T02:20:21;20.73;;;9.38;;
20026;SDS011;10174;42.688;23.344;2023-07-13T02:22:47;23.38;;;10.25;;
20026;SDS011;10174;42.688;23.344;2023-07-13T02:25:13;19.27;;;9.63;;
20026;SDS011;10174;42.688;23.344;2023-07-13T02:27:39;16.60;;;9.18;;
20026;SDS011;10174;42.688;23.344;2023-07-13T02:30:04;22.27;;;9.45;;
20026;SDS011;10174;42.688;23.344;2023-07-13T02:32:30;21.55;;;9.85;;
20026;SDS011;10174;42.688;23.344;2023-07-13T02:34:56;25.73;;;10.80;;
20026;SDS011;10174;42.688;23.344;2023-07-13T02:37:21;22.05;;;10.68;;
20026;SDS011;10174;42.688;23.344;2023-07-13T02:39:47;20.42;;;9.98;;
20026;SDS011;10174;42.688;23.344;2023-07-13T02:42:13;20.15;;;9.60;;
20026;SDS011;10174;42.688;23.344;2023-07-13T02:44:38;22.50;;;9.70;;
20026;SDS011;10174;42.688;23.344;2023-07-13T02:47:03;23.35;;;10.32;;
20026;SDS011;10174;42.688;23.344;2023-07-13T02:49:29;23.65;;;9.50;;
20026;SDS011;10174;42.688;23.344;2023-07-13T02:51:54;25.67;;;10.48;;
20026;SDS011;10174;42.688;23.344;2023-07-13T02:54:20;26.08;;;10.63;;
20026;SDS011;10174;42.688;23.344;2023-07-13T02:56:45;20.85;;;9.40;;
20026;SDS011;10174;42.688;23.344;2023-07-13T02:59:11;19.27;;;9.93;;
20026;SDS011;10174;42.688;23.344;2023-07-13T03:01:37;22.92;;;10.55;;
20026;SDS011;10174;42.688;23.344;2023-07-13T03:04:03;22.65;;;10.52;;
20026;SDS011;10174;42.688;23.344;2023-07-13T03:06:30;25.85;;;10.65;;
20026;SDS011;10174;42.688;23.344;2023-07-13T03:08:56;21.25;;;9.65;;
20026;SDS011;10174;42.688;23.344;2023-07-13T03:11:21;23.05;;;10.00;;
20026;SDS011;10174;42.688;23.344;2023-07-13T03:13:47;22.73;;;10.43;;
20026;SDS011;10174;42.688;23.344;2023-07-13T03:16:13;20.77;;;10.20;;
20026;SDS011;10174;42.688;23.344;2023-07-13T03:18:43;21.00;;;10.27;;
20026;SDS011;10174;42.688;23.344;2023-07-13T03:21:09;26.25;;;10.07;;
20026;SDS011;10174;42.688;23.344;2023-07-13T03:23:35;22.42;;;9.88;;
20026;SDS011;10174;42.688;23.344;2023-07-13T03:26:07;19.02;;;10.32;;
20026;SDS011;10174;42.688;23.344;2023-07-13T03:28:35;23.50;;;11.45;;
20026;SDS011;10174;42.688;23.344;2023-07-13T03:33:28;26.23;;;11.55;;
20026;SDS011;10174;42.688;23.344;2023-07-13T03:35:55;26.50;;;11.65;;
20026;SDS011;10174;42.688;23.344;2023-07-13T03:38:21;18.95;;;10.85;;
20026;SDS011;10174;42.688;23.344;2023-07-13T03:40:46;30.38;;;11.43;;
20026;SDS011;10174;42.688;23.344;2023-07-13T03:43:12;32.78;;;11.98;;
20026;SDS011;10174;42.688;23.344;2023-07-13T03:45:37;26.33;;;11.15;;
20026;SDS011;10174;42.688;23.344;2023-07-13T03:48:03;23.35;;;11.15;;
20026;SDS011;10174;42.688;23.344;2023-07-13T03:50:30;23.60;;;11.55;;
20026;SDS011;10174;42.688;23.344;2023-07-13T03:52:55;20.17;;;10.55;;
20026;SDS011;10174;42.688;23.344;2023-07-13T03:55:22;25.23;;;11.15;;
20026;SDS011;10174;42.688;23.344;2023-07-13T03:57:47;27.65;;;11.25;;
20026;SDS011;10174;42.688;23.344;2023-07-13T04:00:13;30.95;;;11.52;;
20026;SDS011;10174;42.688;23.344;2023-07-13T04:02:38;24.20;;;11.35;;
20026;SDS011;10174;42.688;23.344;2023-07-13T04:05:04;24.15;;;11.00;;
20026;SDS011;10174;42.688;23.344;2023-07-13T04:07:30;24.70;;;12.10;;
20026;SDS011;10174;42.688;23.344;2023-07-13T04:09:55;25.17;;;12.65;;
20026;SDS011;10174;42.688;23.344;2023-07-13T04:12:20;21.75;;;12.70;;
20026;SDS011;10174;42.688;23.344;2023-07-13T04:14:46;29.13;;;13.00;;
20026;SDS011;10174;42.688;23.344;2023-07-13T04:17:11;20.65;;;12.57;;
20026;SDS011;10174;42.688;23.344;2023-07-13T04:19:36;22.15;;;12.60;;
20026;SDS011;10174;42.688;23.344;2023-07-13T04:22:02;17.48;;;12.18;;
20026;SDS011;10174;42.688;23.344;2023-07-13T04:24:27;19.00;;;11.88;;
20026;SDS011;10174;42.688;23.344;2023-07-13T04:26:53;27.13;;;12.73;;
20026;SDS011;10174;42.688;23.344;2023-07-13T04:29:18;25.70;;;12.00;;
20026;SDS011;10174;42.688;23.344;2023-07-13T04:31:43;21.52;;;12.77;;
20026;SDS011;10174;42.688;23.344;2023-07-13T04:34:09;18.25;;;11.65;;
20026;SDS011;10174;42.688;23.344;2023-07-13T04:36:34;23.80;;;12.75;;
20026;SDS011;10174;42.688;23.344;2023-07-13T04:39:02;34.75;;;13.75;;
20026;SDS011;10174;42.688;23.344;2023-07-13T04:41:28;27.55;;;14.18;;
20026;SDS011;10174;42.688;23.344;2023-07-13T04:43:53;28.10;;;13.50;;
20026;SDS011;10174;42.688;23.344;2023-07-13T04:46:18;24.70;;;14.57;;
20026;SDS011;10174;42.688;23.344;2023-07-13T04:48:44;30.40;;;12.75;;
20026;SDS011;10174;42.688;23.344;2023-07-13T04:51:10;20.48;;;12.88;;
20026;SDS011;10174;42.688;23.344;2023-07-13T04:53:36;23.95;;;12.85;;
20026;SDS011;10174;42.688;23.344;2023-07-13T04:56:02;20.33;;;12.52;;
20026;SDS011;10174;42.688;23.344;2023-07-13T04:58:28;22.27;;;12.82;;
20026;SDS011;10174;42.688;23.344;2023-07-13T05:00:53;22.90;;;13.00;;
20026;SDS011;10174;42.688;23.344;2023-07-13T05:03:25;24.08;;;13.50;;
20026;SDS011;10174;42.688;23.344;2023-07-13T05:05:57;23.85;;;13.30;;
20026;SDS011;10174;42.688;23.344;2023-07-13T05:08:24;21.30;;;13.45;;
20026;SDS011;10174;42.688;23.344;2023-07-13T05:10:50;23.48;;;13.68;;
20026;SDS011;10174;42.688;23.344;2023-07-13T05:13:15;29.50;;;14.60;;
20026;SDS011;10174;42.688;23.344;2023-07-13T05:15:41;24.95;;;14.88;;
20026;SDS011;10174;42.688;23.344;2023-07-13T05:18:06;38.58;;;20.55;;
20026;SDS011;10174;42.688;23.344;2023-07-13T05:20:32;36.05;;;15.88;;
20026;SDS011;10174;42.688;23.344;2023-07-13T05:22:57;24.67;;;14.75;;
20026;SDS011;10174;42.688;23.344;2023-07-13T05:25:22;27.75;;;14.25;;
20026;SDS011;10174;42.688;23.344;2023-07-13T05:27:48;29.42;;;14.35;;
20026;SDS011;10174;42.688;23.344;2023-07-13T05:30:13;25.45;;;13.98;;
20026;SDS011;10174;42.688;23.344;2023-07-13T05:32:39;28.75;;;14.40;;
20026;SDS011;10174;42.688;23.344;2023-07-13T05:35:04;25.00;;;14.27;;
20026;SDS011;10174;42.688;23.344;2023-07-13T05:37:30;21.38;;;14.07;;
20026;SDS011;10174;42.688;23.344;2023-07-13T05:39:56;34.60;;;15.40;;
20026;SDS011;10174;42.688;23.344;2023-07-13T05:42:21;27.17;;;13.43;;
20026;SDS011;10174;42.688;23.344;2023-07-13T05:44:46;33.17;;;12.90;;
20026;SDS011;10174;42.688;23.344;2023-07-13T05:47:12;26.15;;;13.57;;
20026;SDS011;10174;42.688;23.344;2023-07-13T05:49:39;28.33;;;13.63;;
20026;SDS011;10174;42.688;23.344;2023-07-13T05:52:04;28.73;;;13.95;;
20026;SDS011;10174;42.688;23.344;2023-07-13T05:54:30;29.92;;;13.20;;
20026;SDS011;10174;42.688;23.344;2023-07-13T05:56:55;27.85;;;12.63;;
20026;SDS011;10174;42.688;23.344;2023-07-13T05:59:21;26.17;;;13.27;;
20026;SDS011;10174;42.688;23.344;2023-07-13T06:01:46;25.00;;;12.13;;
20026;SDS011;10174;42.688;23.344;2023-07-13T06:04:12;24.73;;;12.85;;
20026;SDS011;10174;42.688;23.344;2023-07-13T06:06:37;29.42;;;13.15;;
20026;SDS011;10174;42.688;23.344;2023-07-13T06:09:03;24.35;;;11.90;;
20026;SDS011;10174;42.688;23.344;2023-07-13T06:11:28;23.23;;;11.93;;
20026;SDS011;10174;42.688;23.344;2023-07-13T06:13:55;23.38;;;14.15;;
20026;SDS011;10174;42.688;23.344;2023-07-13T06:16:21;22.55;;;12.02;;
20026;SDS011;10174;42.688;23.344;2023-07-13T06:18:47;23.90;;;11.07;;
20026;SDS011;10174;42.688;23.344;2023-07-13T06:21:14;15.98;;;10.20;;
20026;SDS011;10174;42.688;23.344;2023-07-13T06:23:41;27.05;;;11.00;;
20026;SDS011;10174;42.688;23.344;2023-07-13T06:26:07;22.65;;;11.65;;
20026;SDS011;10174;42.688;23.344;2023-07-13T06:28:34;28.45;;;14.85;;
20026;SDS011;10174;42.688;23.344;2023-07-13T06:31:00;26.00;;;12.77;;
20026;SDS011;10174;42.688;23.344;2023-07-13T06:33:26;19.13;;;11.05;;
20026;SDS011;10174;42.688;23.344;2023-07-13T06:35:52;31.08;;;11.50;;
20026;SDS011;10174;42.688;23.344;2023-07-13T06:38:19;27.08;;;11.82;;
20026;SDS011;10174;42.688;23.344;2023-07-13T06:40:45;33.35;;;12.27;;
20026;SDS011;10174;42.688;23.344;2023-07-13T06:43:10;23.45;;;12.02;;
20026;SDS011;10174;42.688;23.344;2023-07-13T06:45:39;24.23;;;11.65;;
20026;SDS011;10174;42.688;23.344;2023-07-13T06:48:12;21.90;;;12.90;;
20026;SDS011;10174;42.688;23.344;2023-07-13T06:50:38;22.90;;;12.98;;
20026;SDS011;10174;42.688;23.344;2023-07-13T06:53:04;21.75;;;12.60;;
20026;SDS011;10174;42.688;23.344;2023-07-13T06:55:29;24.58;;;11.93;;
20026;SDS011;10174;42.688;23.344;2023-07-13T06:57:54;46.90;;;12.73;;
20026;SDS011;10174;42.688;23.344;2023-07-13T07:00:20;27.27;;;12.60;;
20026;SDS011;10174;42.688;23.344;2023-07-13T07:02:45;31.98;;;13.27;;
20026;SDS011;10174;42.688;23.344;2023-07-13T07:05:11;21.52;;;11.40;;
20026;SDS011;10174;42.688;23.344;2023-07-13T07:07:36;21.38;;;12.48;;
20026;SDS011;10174;42.688;23.344;2023-07-13T07:10:02;19.48;;;10.82;;
20026;SDS011;10174;42.688;23.344;2023-07-13T07:12:28;33.17;;;12.82;;
20026;SDS011;10174;42.688;23.344;2023-07-13T07:14:53;20.65;;;11.88;;
20026;SDS011;10174;42.688;23.344;2023-07-13T07:17:19;22.10;;;12.73;;
20026;SDS011;10174;42.688;23.344;2023-07-13T07:19:44;20.73;;;11.15;;
20026;SDS011;10174;42.688;23.344;2023-07-13T07:22:10;24.83;;;10.77;;
20026;SDS011;10174;42.688;23.344;2023-07-13T07:24:35;34.03;;;11.55;;
20026;SDS011;10174;42.688;23.344;2023-07-13T07:27:01;21.98;;;12.52;;
20026;SDS011;10174;42.688;23.344;2023-07-13T07:29:26;17.98;;;11.38;;
20026;SDS011;10174;42.688;23.344;2023-07-13T07:31:52;24.10;;;11.70;;
20026;SDS011;10174;42.688;23.344;2023-07-13T07:34:18;21.75;;;11.80;;
20026;SDS011;10174;42.688;23.344;2023-07-13T07:36:44;26.00;;;11.15;;
20026;SDS011;10174;42.688;23.344;2023-07-13T07:39:10;31.98;;;16.38;;
20026;SDS011;10174;42.688;23.344;2023-07-13T07:41:35;28.52;;;13.90;;
20026;SDS011;10174;42.688;23.344;2023-07-13T07:44:02;17.23;;;10.88;;
20026;SDS011;10174;42.688;23.344;2023-07-13T07:46:28;24.60;;;12.60;;
20026;SDS011;10174;42.688;23.344;2023-07-13T07:48:55;21.45;;;10.10;;
20026;SDS011;10174;42.688;23.344;2023-07-13T07:51:20;17.15;;;9.60;;
20026;SDS011;10174;42.688;23.344;2023-07-13T07:53:46;19.80;;;10.32;;
20026;SDS011;10174;42.688;23.344;2023-07-13T07:56:12;21.77;;;12.27;;
20026;SDS011;10174;42.688;23.344;2023-07-13T07:58:37;16.17;;;10.27;;
20026;SDS011;10174;42.688;23.344;2023-07-13T08:01:03;26.92;;;10.02;;
20026;SDS011;10174;42.688;23.344;2023-07-13T08:03:30;24.90;;;11.20;;
20026;SDS011;10174;42.688;23.344;2023-07-13T08:05:55;18.25;;;9.60;;
20026;SDS011;10174;42.688;23.344;2023-07-13T08:08:20;19.63;;;9.73;;
20026;SDS011;10174;42.688;23.344;2023-07-13T08:10:46;19.95;;;10.02;;
20026;SDS011;10174;42.688;23.344;2023-07-13T08:13:11;23.50;;;10.02;;
20026;SDS011;10174;42.688;23.344;2023-07-13T08:15:37;16.20;;;9.32;;
20026;SDS011;10174;42.688;23.344;2023-07-13T08:18:03;24.77;;;11.15;;
20026;SDS011;10174;42.688;23.344;2023-07-13T08:20:28;24.45;;;10.05;;
20026;SDS011;10174;42.688;23.344;2023-07-13T08:22:53;19.67;;;10.27;;
20026;SDS011;10174;42.688;23.344;2023-07-13T08:25:19;23.42;;;9.70;;
20026;SDS011;10174;42.688;23.344;2023-07-13T08:27:45;21.60;;;10.30;;
20026;SDS011;10174;42.688;23.344;2023-07-13T08:30:11;27.33;;;10.60;;
20026;SDS011;10174;42.688;23.344;2023-07-13T08:32:36;22.73;;;9.90;;
20026;SDS011;10174;42.688;23.344;2023-07-13T08:35:02;23.35;;;9.80;;
20026;SDS011;10174;42.688;23.344;2023-07-13T08:37:28;17.25;;;9.45;;
20026;SDS011;10174;42.688;23.344;2023-07-13T08:39:53;21.63;;;9.40;;
20026;SDS011;10174;42.688;23.344;2023-07-13T08:48:13;23.48;;;10.00;;
20026;SDS011;10174;42.688;23.344;2023-07-13T08:50:57;20.17;;;11.30;;
20026;SDS011;10174;42.688;23.344;2023-07-13T08:53:26;18.25;;;9.38;;
20026;SDS011;10174;42.688;23.344;2023-07-13T08:55:59;22.00;;;10.65;;
20026;SDS011;10174;42.688;23.344;2023-07-13T08:58:26;21.08;;;10.20;;
20026;SDS011;10174;42.688;23.344;2023-07-13T09:03:23;20.17;;;10.00;;
20026;SDS011;10174;42.688;23.344;2023-07-13T09:05:57;19.42;;;10.20;;
20026;SDS011;10174;42.688;23.344;2023-07-13T09:11:16;21.17;;;9.52;;
20026;SDS011;10174;42.688;23.344;2023-07-13T09:17:17;16.92;;;9.00;;
20026;SDS011;10174;42.688;23.344;2023-07-13T09:19:52;18.23;;;10.25;;
20026;SDS011;10174;42.688;23.344;2023-07-13T09:22:24;19.33;;;10.20;;
20026;SDS011;10174;42.688;23.344;2023-07-13T09:27:22;23.25;;;10.20;;
20026;SDS011;10174;42.688;23.344;2023-07-13T09:29:56;19.83;;;9.55;;
20026;SDS011;10174;42.688;23.344;2023-07-13T09:32:36;23.75;;;9.38;;
20026;SDS011;10174;42.688;23.344;2023-07-13T09:35:09;17.25;;;8.75;;
20026;SDS011;10174;42.688;23.344;2023-07-13T09:37:36;23.23;;;9.27;;
20026;SDS011;10174;42.688;23.344;2023-07-13T09:40:02;26.20;;;10.15;;
20026;SDS011;10174;42.688;23.344;2023-07-13T09:42:30;22.90;;;10.45;;
20026;SDS011;10174;42.688;23.344;2023-07-13T09:45:01;20.73;;;10.52;;
20026;SDS011;10174;42.688;23.344;2023-07-13T09:47:32;21.25;;;8.50;;
20026;SDS011;10174;42.688;23.344;2023-07-13T09:50:09;20.20;;;9.50;;
20026;SDS011;10174;42.688;23.344;2023-07-13T09:52:45;15.32;;;9.32;;
20026;SDS011;10174;42.688;23.344;2023-07-13T09:55:24;21.23;;;9.15;;
20026;SDS011;10174;42.688;23.344;2023-07-13T09:57:50;24.10;;;11.32;;
20026;SDS011;10174;42.688;23.344;2023-07-13T10:00:21;22.70;;;10.77;;
20026;SDS011;10174;42.688;23.344;2023-07-13T10:02:58;21.85;;;9.55;;
20026;SDS011;10174;42.688;23.344;2023-07-13T10:05:24;16.10;;;9.05;;
20026;SDS011;10174;42.688;23.344;2023-07-13T10:07:50;20.40;;;9.43;;
20026;SDS011;10174;42.688;23.344;2023-07-13T10:10:17;24.02;;;9.75;;
20026;SDS011;10174;42.688;23.344;2023-07-13T10:12:46;17.10;;;8.77;;
20026;SDS011;10174;42.688;23.344;2023-07-13T10:15:16;19.60;;;8.68;;
20026;SDS011;10174;42.688;23.344;2023-07-13T10:17:43;19.98;;;8.65;;
20026;SDS011;10174;42.688;23.344;2023-07-13T10:20:10;18.73;;;8.23;;
20026;SDS011;10174;42.688;23.344;2023-07-13T10:25:22;30.30;;;8.48;;
20026;SDS011;10174;42.688;23.344;2023-07-13T10:27:50;15.30;;;6.50;;
20026;SDS011;10174;42.688;23.344;2023-07-13T10:30:38;13.68;;;7.35;;
20026;SDS011;10174;42.688;23.344;2023-07-13T10:33:12;13.30;;;6.55;;
20026;SDS011;10174;42.688;23.344;2023-07-13T10:35:42;18.63;;;6.28;;
20026;SDS011;10174;42.688;23.344;2023-07-13T10:38:13;12.30;;;6.40;;
20026;SDS011;10174;42.688;23.344;2023-07-13T10:43:50;14.32;;;6.72;;
20026;SDS011;10174;42.688;23.344;2023-07-13T10:46:20;19.35;;;5.82;;
20026;SDS011;10174;42.688;23.344;2023-07-13T10:48:49;12.80;;;5.50;;
20026;SDS011;10174;42.688;23.344;2023-07-13T10:51:19;12.05;;;5.18;;
20026;SDS011;10174;42.688;23.344;2023-07-13T10:53:46;15.02;;;5.20;;
20026;SDS011;10174;42.688;23.344;2023-07-13T10:56:30;9.63;;;5.35;;
20026;SDS011;10174;42.688;23.344;2023-07-13T10:59:29;13.93;;;4.68;;
20026;SDS011;10174;42.688;23.344;2023-07-13T11:02:00;13.95;;;5.43;;
20026;SDS011;10174;42.688;23.344;2023-07-13T11:04:55;13.52;;;5.88;;
20026;SDS011;10174;42.688;23.344;2023-07-13T11:07:27;13.55;;;5.57;;
20026;SDS011;10174;42.688;23.344;2023-07-13T11:09:55;13.18;;;5.20;;
20026;SDS011;10174;42.688;23.344;2023-07-13T11:20:07;11.13;;;5.57;;
20026;SDS011;10174;42.688;23.344;2023-07-13T11:27:52;13.52;;;4.78;;
20026;SDS011;10174;42.688;23.344;2023-07-13T11:38:40;16.52;;;5.53;;
20026;SDS011;10174;42.688;23.344;2023-07-13T11:44:15;9.98;;;5.80;;
20026;SDS011;10174;42.688;23.344;2023-07-13T11:46:47;15.00;;;5.75;;
20026;SDS011;10174;42.688;23.344;2023-07-13T11:49:16;12.38;;;6.28;;
20026;SDS011;10174;42.688;23.344;2023-07-13T11:51:43;17.35;;;6.65;;
20026;SDS011;10174;42.688;23.344;2023-07-13T11:56:51;17.73;;;5.80;;
20026;SDS011;10174;42.688;23.344;2023-07-13T11:59:17;13.25;;;5.97;;
20026;SDS011;10174;42.688;23.344;2023-07-13T12:01:46;17.77;;;6.65;;
20026;SDS011;10174;42.688;23.344;2023-07-13T12:04:30;12.77;;;6.63;;
20026;SDS011;10174;42.688;23.344;2023-07-13T12:07:05;11.93;;;6.50;;
20026;SDS011;10174;42.688;23.344;2023-07-13T12:09:42;18.20;;;5.68;;
20026;SDS011;10174;42.688;23.344;2023-07-13T12:12:11;15.95;;;5.60;;
20026;SDS011;10174;42.688;23.344;2023-07-13T12:14:38;18.58;;;6.00;;
20026;SDS011;10174;42.688;23.344;2023-07-13T12:17:07;23.17;;;6.32;;
20026;SDS011;10174;42.688;23.344;2023-07-13T12:19:50;11.57;;;5.88;;
20026;SDS011;10174;42.688;23.344;2023-07-13T12:22:18;11.65;;;5.45;;
20026;SDS011;10174;42.688;23.344;2023-07-13T12:24:45;17.75;;;6.22;;
20026;SDS011;10174;42.688;23.344;2023-07-13T12:27:25;12.98;;;5.50;;
20026;SDS011;10174;42.688;23.344;2023-07-13T12:29:53;14.60;;;5.97;;
20026;SDS011;10174;42.688;23.344;2023-07-13T12:32:24;14.48;;;5.93;;
20026;SDS011;10174;42.688;23.344;2023-07-13T12:34:54;18.83;;;6.05;;
20026;SDS011;10174;42.688;23.344;2023-07-13T12:37:43;12.40;;;5.50;;
20026;SDS011;10174;42.688;23.344;2023-07-13T12:40:15;19.00;;;5.60;;
20026;SDS011;10174;42.688;23.344;2023-07-13T12:42:44;13.90;;;6.07;;
20026;SDS011;10174;42.688;23.344;2023-07-13T12:45:18;19.10;;;5.50;;
20026;SDS011;10174;42.688;23.344;2023-07-13T12:47:50;15.73;;;5.88;;
20026;SDS011;10174;42.688;23.344;2023-07-13T12:50:20;15.43;;;5.40;;
20026;SDS011;10174;42.688;23.344;2023-07-13T12:52:53;16.40;;;5.22;;
20026;SDS011;10174;42.688;23.344;2023-07-13T12:55:20;14.40;;;5.32;;
20026;SDS011;10174;42.688;23.344;2023-07-13T12:57:53;18.02;;;5.75;;
20026;SDS011;10174;42.688;23.344;2023-07-13T13:00:28;17.17;;;6.10;;
20026;SDS011;10174;42.688;23.344;2023-07-13T13:02:58;20.40;;;5.93;;
20026;SDS011;10174;42.688;23.344;2023-07-13T13:05:28;13.05;;;5.40;;
20026;SDS011;10174;42.688;23.344;2023-07-13T13:07:55;22.33;;;5.70;;
20026;SDS011;10174;42.688;23.344;2023-07-13T13:10:20;14.00;;;5.35;;
20026;SDS011;10174;42.688;23.344;2023-07-13T13:12:46;20.38;;;5.78;;
20026;SDS011;10174;42.688;23.344;2023-07-13T13:15:12;17.35;;;5.57;;
20026;SDS011;10174;42.688;23.344;2023-07-13T13:17:38;12.73;;;5.50;;
20026;SDS011;10174;42.688;23.344;2023-07-13T13:20:13;15.30;;;5.45;;
20026;SDS011;10174;42.688;23.344;2023-07-13T13:22:41;12.70;;;5.32;;
20026;SDS011;10174;42.688;23.344;2023-07-13T13:25:09;11.88;;;5.05;;
20026;SDS011;10174;42.688;23.344;2023-07-13T13:27:42;19.33;;;5.70;;
20026;SDS011;10174;42.688;23.344;2023-07-13T13:32:39;16.77;;;5.43;;
20026;SDS011;10174;42.688;23.344;2023-07-13T13:35:05;19.92;;;5.40;;
20026;SDS011;10174;42.688;23.344;2023-07-13T13:37:37;16.05;;;5.10;;
20026;SDS011;10174;42.688;23.344;2023-07-13T13:40:02;18.48;;;5.70;;
20026;SDS011;10174;42.688;23.344;2023-07-13T13:42:38;15.32;;;5.60;;
20026;SDS011;10174;42.688;23.344;2023-07-13T13:45:04;18.88;;;5.50;;
20026;SDS011;10174;42.688;23.344;2023-07-13T13:47:31;20.00;;;6.13;;
20026;SDS011;10174;42.688;23.344;2023-07-13T13:50:01;21.13;;;5.28;;
20026;SDS011;10174;42.688;23.344;2023-07-13T13:52:35;13.13;;;5.60;;
20026;SDS011;10174;42.688;23.344;2023-07-13T13:55:00;11.50;;;5.30;;
20026;SDS011;10174;42.688;23.344;2023-07-13T13:57:26;17.20;;;5.20;;
20026;SDS011;10174;42.688;23.344;2023-07-13T13:59:52;16.13;;;5.40;;
20026;SDS011;10174;42.688;23.344;2023-07-13T14:02:27;17.83;;;5.43;;
20026;SDS011;10174;42.688;23.344;2023-07-13T14:04:59;15.52;;;4.97;;
20026;SDS011;10174;42.688;23.344;2023-07-13T14:07:27;18.90;;;5.20;;
20026;SDS011;10174;42.688;23.344;2023-07-13T14:09:55;15.80;;;5.35;;
20026;SDS011;10174;42.688;23.344;2023-07-13T14:12:22;11.05;;;5.07;;
20026;SDS011;10174;42.688;23.344;2023-07-13T14:14:49;18.75;;;6.40;;
20026;SDS011;10174;42.688;23.344;2023-07-13T14:17:21;18.42;;;5.70;;
20026;SDS011;10174;42.688;23.344;2023-07-13T14:19:49;17.27;;;5.30;;
20026;SDS011;10174;42.688;23.344;2023-07-13T14:22:17;17.55;;;5.15;;
20026;SDS011;10174;42.688;23.344;2023-07-13T14:24:43;14.30;;;5.07;;
20026;SDS011;10174;42.688;23.344;2023-07-13T14:27:09;15.13;;;5.47;;
20026;SDS011;10174;42.688;23.344;2023-07-13T14:29:35;16.42;;;5.75;;
20026;SDS011;10174;42.688;23.344;2023-07-13T14:32:01;15.43;;;5.35;;
20026;SDS011;10174;42.688;23.344;2023-07-13T14:34:27;16.30;;;5.82;;
20026;SDS011;10174;42.688;23.344;2023-07-13T14:36:53;19.10;;;5.70;;
20026;SDS011;10174;42.688;23.344;2023-07-13T14:39:19;19.30;;;5.78;;
20026;SDS011;10174;42.688;23.344;2023-07-13T14:41:49;20.02;;;5.57;;
20026;SDS011;10174;42.688;23.344;2023-07-13T14:44:20;17.88;;;6.05;;
20026;SDS011;10174;42.688;23.344;2023-07-13T14:46:49;11.07;;;5.40;;
20026;SDS011;10174;42.688;23.344;2023-07-13T14:49:29;14.07;;;5.63;;
20026;SDS011;10174;42.688;23.344;2023-07-13T14:51:57;15.88;;;5.47;;
20026;SDS011;10174;42.688;23.344;2023-07-13T14:54:24;15.70;;;5.30;;
20026;SDS011;10174;42.688;23.344;2023-07-13T14:56:50;16.95;;;5.85;;
20026;SDS011;10174;42.688;23.344;2023-07-13T14:59:16;15.15;;;5.50;;
20026;SDS011;10174;42.688;23.344;2023-07-13T15:01:43;20.80;;;5.85;;
20026;SDS011;10174;42.688;23.344;2023-07-13T15:04:10;18.10;;;5.40;;
20026;SDS011;10174;42.688;23.344;2023-07-13T15:09:25;15.65;;;5.43;;
20026;SDS011;10174;42.688;23.344;2023-07-13T15:11:52;18.38;;;6.15;;
20026;SDS011;10174;42.688;23.344;2023-07-13T15:14:19;15.32;;;5.60;;
20026;SDS011;10174;42.688;23.344;2023-07-13T15:16:45;13.30;;;6.00;;
20026;SDS011;10174;42.688;23.344;2023-07-13T15:19:14;16.48;;;5.90;;
20026;SDS011;10174;42.688;23.344;2023-07-13T15:21:41;17.25;;;5.60;;